createdAt,value
2017-05-15T00:00:12.265Z,23.5
2017-05-15T00:01:12.298Z,23.51
2017-05-15T00:02:12.517Z,23.46
2017-05-15T00:03:12.352Z,23.5
2017-05-15T00:04:12.371Z,23.47
2017-05-15T00:05:12.405Z,23.5
2017-05-15T00:06:12.434Z,23.46
2017-05-15T00:07:12.403Z,23.48
2017-05-15T00:08:12.492Z,23.51
2017-05-15T00:09:12.204Z,23.5
2017-05-15T00:10:11.922Z,23.47
2017-05-15T00:11:12.569Z,23.47
2017-05-15T00:12:12.798Z,23.43
2017-05-15T00:13:12.628Z,23.5
2017-05-15T00:14:12.664Z,23.46
2017-05-15T00:15:12.685Z,23.46
2017-05-15T00:16:12.766Z,23.51
2017-05-15T00:17:12.982Z,23.48
2017-05-15T00:18:12.769Z,23.46
2017-05-15T00:19:12.796Z,23.43
2017-05-15T00:20:12.819Z,23.51
2017-05-15T00:21:12.531Z,23.46
2017-05-15T00:22:12.762Z,23.39
2017-05-15T00:23:12.906Z,23.42
2017-05-15T00:24:12.932Z,23.39
2017-05-15T00:25:12.645Z,23.39
2017-05-15T00:26:12.988Z,23.4
2017-05-15T00:27:12.959Z,23.46
2017-05-15T00:28:12.740Z,23.38
2017-05-15T00:29:13.072Z,23.4
2017-05-15T00:30:13.101Z,23.43
2017-05-15T00:31:13.126Z,23.43
2017-05-15T00:32:13.036Z,23.46
2017-05-15T00:33:13.182Z,23.39
2017-05-15T00:34:12.894Z,23.4
2017-05-15T00:35:13.236Z,23.42
2017-05-15T00:36:13.263Z,23.36
2017-05-15T00:37:12.666Z,23.38
2017-05-15T00:38:13.322Z,23.36
2017-05-15T00:39:13.347Z,23.46
2017-05-15T00:40:13.064Z,23.42
2017-05-15T00:41:13.404Z,23.33
2017-05-15T00:42:13.113Z,23.4
2017-05-15T00:43:13.454Z,23.39
2017-05-15T00:44:13.492Z,23.4
2017-05-15T00:45:13.517Z,23.36
2017-05-15T00:46:13.540Z,23.35
2017-05-15T00:47:13.566Z,23.35
2017-05-15T00:48:13.602Z,23.4
2017-05-15T00:49:13.627Z,23.36
2017-05-15T00:50:13.653Z,23.36
2017-05-15T00:51:13.365Z,23.35
2017-05-15T00:52:13.081Z,23.42
2017-05-15T00:53:13.738Z,23.38
2017-05-15T00:54:13.447Z,23.35
2017-05-15T00:55:13.796Z,23.38
2017-05-15T00:56:13.510Z,23.35
2017-05-15T00:57:13.845Z,23.43
2017-05-15T00:58:13.880Z,23.36
2017-05-15T00:59:13.907Z,23.42
2017-05-15T01:00:13.619Z,23.35
2017-05-15T01:01:13.956Z,23.38
2017-05-15T01:02:13.981Z,23.4
2017-05-15T01:03:13.699Z,23.36
2017-05-15T01:04:13.726Z,23.35
2017-05-15T01:05:13.756Z,23.31
2017-05-15T01:06:13.783Z,23.38
2017-05-15T01:07:14.118Z,23.32
2017-05-15T01:08:14.402Z,23.38
2017-05-15T01:09:13.871Z,23.28
2017-05-15T01:10:13.891Z,23.36
2017-05-15T01:11:14.240Z,23.28
2017-05-15T01:12:14.301Z,23.27
2017-05-15T01:13:14.538Z,23.35
2017-05-15T01:14:14.003Z,23.39
2017-05-15T01:15:14.343Z,23.28
2017-05-15T01:16:14.061Z,23.38
2017-05-15T01:17:14.397Z,23.23
2017-05-15T01:18:14.057Z,23.35
2017-05-15T01:19:14.137Z,23.28
2017-05-15T01:20:14.172Z,23.23
2017-05-15T01:21:14.188Z,23.27
2017-05-15T01:22:14.534Z,23.23
2017-05-15T01:23:14.460Z,23.31
2017-05-15T01:24:14.596Z,23.23
2017-05-15T01:25:14.627Z,23.25
2017-05-15T01:26:14.639Z,23.23
2017-05-15T01:27:14.673Z,23.27
2017-05-15T01:28:14.595Z,23.25
2017-05-15T01:29:14.730Z,23.22
2017-05-15T01:30:14.759Z,23.22
2017-05-15T01:31:14.785Z,23.25
2017-05-15T01:32:14.812Z,23.23
2017-05-15T01:33:15.095Z,23.27
2017-05-15T01:34:14.870Z,23.2
2017-05-15T01:35:14.895Z,23.28
2017-05-15T01:36:14.920Z,23.27
2017-05-15T01:37:14.324Z,23.23
2017-05-15T01:38:15.182Z,23.25
2017-05-15T01:39:14.382Z,23.27
2017-05-15T01:40:14.410Z,23.2
2017-05-15T01:41:15.057Z,23.23
2017-05-15T01:42:14.772Z,23.22
2017-05-15T01:43:15.057Z,23.27
2017-05-15T01:44:15.146Z,23.22
2017-05-15T01:45:15.179Z,23.25
2017-05-15T01:46:15.200Z,23.19
2017-05-15T01:47:15.228Z,23.17
2017-05-15T01:48:15.196Z,23.13
2017-05-15T01:49:15.025Z,23.2
2017-05-15T01:50:15.310Z,23.12
2017-05-15T01:51:15.019Z,23.22
2017-05-15T01:52:15.053Z,23.17
2017-05-15T01:53:15.649Z,23.22
2017-05-15T01:54:15.426Z,23.16
2017-05-15T01:55:15.139Z,23.13
2017-05-15T01:56:15.167Z,23.2
2017-05-15T01:57:15.184Z,23.25
2017-05-15T01:58:15.786Z,23.17
2017-05-15T01:59:15.563Z,23.17
2017-05-15T02:00:15.281Z,23.19
2017-05-15T02:01:15.615Z,23.16
2017-05-15T02:02:15.328Z,23.19
2017-05-15T02:03:15.670Z,23.17
2017-05-15T02:04:15.697Z,23.22
2017-05-15T02:05:15.415Z,23.22
2017-05-15T02:06:15.436Z,23.25
2017-05-15T02:07:15.780Z,23.16
2017-05-15T02:08:15.808Z,23.17
2017-05-15T02:09:15.878Z,23.07
2017-05-15T02:10:15.862Z,23.2
2017-05-15T02:11:15.892Z,23.17
2017-05-15T02:12:15.922Z,23.19
2017-05-15T02:13:15.944Z,23.12
2017-05-15T02:14:15.978Z,23.19
2017-05-15T02:15:15.997Z,23.1
2017-05-15T02:16:15.402Z,23.12
2017-05-15T02:17:16.056Z,23.15
2017-05-15T02:18:15.763Z,23.16
2017-05-15T02:19:16.110Z,23.04
2017-05-15T02:20:16.141Z,23.13
2017-05-15T02:21:16.168Z,23.12
2017-05-15T02:22:15.876Z,23.22
2017-05-15T02:23:16.220Z,23.19
2017-05-15T02:24:15.936Z,23.05
2017-05-15T02:25:16.275Z,23.15
2017-05-15T02:26:15.991Z,23.16
2017-05-15T02:27:16.340Z,23.15
2017-05-15T02:28:16.356Z,23.12
2017-05-15T02:29:16.389Z,23.16
2017-05-15T02:30:16.103Z,23.13
2017-05-15T02:31:16.126Z,23.12
2017-05-15T02:32:16.463Z,23.1
2017-05-15T02:33:16.509Z,23.12
2017-05-15T02:34:16.210Z,23.1
2017-05-15T02:35:16.545Z,23.12
2017-05-15T02:36:16.579Z,23.1
2017-05-15T02:37:16.603Z,23.05
2017-05-15T02:38:16.312Z,23.13
2017-05-15T02:39:16.353Z,23.09
2017-05-15T02:40:16.678Z,23.05
2017-05-15T02:41:16.718Z,23.07
2017-05-15T02:42:16.423Z,23.13
2017-05-15T02:43:16.772Z,23.07
2017-05-15T02:44:16.805Z,23.07
2017-05-15T02:45:16.825Z,23.12
2017-05-15T02:46:16.532Z,23.12
2017-05-15T02:47:16.878Z,23.17
2017-05-15T02:48:16.600Z,23.13
2017-05-15T02:49:16.878Z,23.17
2017-05-15T02:50:16.962Z,23.1
2017-05-15T02:51:16.991Z,23.12
2017-05-15T02:52:17.020Z,23.12
2017-05-15T02:53:16.729Z,23.09
2017-05-15T02:54:17.009Z,23.07
2017-05-15T02:55:16.789Z,23.1
2017-05-15T02:56:17.128Z,23.09
2017-05-15T02:57:17.152Z,23.09
2017-05-15T02:58:16.876Z,23.1
2017-05-15T02:59:16.808Z,23.05
2017-05-15T03:00:16.613Z,23.1
2017-05-15T03:01:16.954Z,23.05
2017-05-15T03:02:16.983Z,23.13
2017-05-15T03:03:17.320Z,23.09
2017-05-15T03:04:17.601Z,23.02
2017-05-15T03:05:17.376Z,23.09
2017-05-15T03:06:17.403Z,23.04
2017-05-15T03:07:17.429Z,23.02
2017-05-15T03:08:17.448Z,23.05
2017-05-15T03:09:17.429Z,23.07
2017-05-15T03:10:17.514Z,23.09
2017-05-15T03:11:17.229Z,23.1
2017-05-15T03:12:17.572Z,23.12
2017-05-15T03:13:17.596Z,23.09
2017-05-15T03:14:17.512Z,23.05
2017-05-15T03:15:17.650Z,23.1
2017-05-15T03:16:17.681Z,23.15
2017-05-15T03:17:17.703Z,23.04
2017-05-15T03:18:17.724Z,23.02
2017-05-15T03:19:17.384Z,23
2017-05-15T03:20:17.785Z,23
2017-05-15T03:21:17.506Z,23.09
2017-05-15T03:22:17.847Z,23.05
2017-05-15T03:23:17.862Z,23.09
2017-05-15T03:24:18.158Z,23.04
2017-05-15T03:25:17.611Z,23.02
2017-05-15T03:26:17.957Z,23.05
2017-05-15T03:27:17.669Z,22.98
2017-05-15T03:28:17.691Z,23.01
2017-05-15T03:29:18.289Z,23.04
2017-05-15T03:30:18.061Z,23.04
2017-05-15T03:31:18.093Z,23.04
2017-05-15T03:32:18.113Z,23.04
2017-05-15T03:33:17.519Z,23.04
2017-05-15T03:34:18.061Z,23.04
2017-05-15T03:35:17.885Z,23.09
2017-05-15T03:36:18.225Z,23.1
2017-05-15T03:37:18.253Z,23.01
2017-05-15T03:38:18.281Z,23.01
2017-05-15T03:39:18.569Z,23.01
2017-05-15T03:40:18.333Z,23.04
2017-05-15T03:41:18.362Z,23.04
2017-05-15T03:42:18.385Z,23.07
2017-05-15T03:43:18.421Z,23.04
2017-05-15T03:44:18.699Z,23.01
2017-05-15T03:45:18.165Z,23.01
2017-05-15T03:46:18.501Z,23.01
2017-05-15T03:47:18.526Z,23.02
2017-05-15T03:48:18.547Z,23.02
2017-05-15T03:49:18.835Z,23.04
2017-05-15T03:50:18.609Z,23.05
2017-05-15T03:51:18.638Z,23.05
2017-05-15T03:52:18.659Z,23.02
2017-05-15T03:53:18.688Z,23.02
2017-05-15T03:54:18.720Z,23
2017-05-15T03:55:18.752Z,23.07
2017-05-15T03:56:18.461Z,23.05
2017-05-15T03:57:18.490Z,23.01
2017-05-15T03:58:18.204Z,23.01
2017-05-15T03:59:18.548Z,23.04
2017-05-15T04:00:18.888Z,23.07
2017-05-15T04:01:18.598Z,23.04
2017-05-15T04:02:18.934Z,23
2017-05-15T04:03:18.968Z,23.02
2017-05-15T04:04:18.676Z,23.02
2017-05-15T04:05:18.708Z,23.05
2017-05-15T04:06:18.733Z,23.1
2017-05-15T04:07:18.763Z,22.98
2017-05-15T04:08:19.107Z,23.04
2017-05-15T04:09:19.195Z,23.01
2017-05-15T04:10:19.156Z,23
2017-05-15T04:11:19.185Z,23
2017-05-15T04:12:18.890Z,23.07
2017-05-15T04:13:18.927Z,23.05
2017-05-15T04:14:18.959Z,23.05
2017-05-15T04:15:18.975Z,23.07
2017-05-15T04:16:19.326Z,23.02
2017-05-15T04:17:19.351Z,23.04
2017-05-15T04:18:18.751Z,23.05
2017-05-15T04:19:19.091Z,22.98
2017-05-15T04:20:19.634Z,23.02
2017-05-15T04:21:19.461Z,23.09
2017-05-15T04:22:19.482Z,22.98
2017-05-15T04:23:19.520Z,23.01
2017-05-15T04:24:19.531Z,22.98
2017-05-15T04:25:19.509Z,23.01
2017-05-15T04:26:19.594Z,23.07
2017-05-15T04:27:19.624Z,23.09
2017-05-15T04:28:19.647Z,23.02
2017-05-15T04:29:19.683Z,23.02
2017-05-15T04:30:19.643Z,23.07
2017-05-15T04:31:19.733Z,22.98
2017-05-15T04:32:19.445Z,23.07
2017-05-15T04:33:19.795Z,23.02
2017-05-15T04:34:19.807Z,22.98
2017-05-15T04:35:19.784Z,23.05
2017-05-15T04:36:19.870Z,23.05
2017-05-15T04:37:19.893Z,23.02
2017-05-15T04:38:19.612Z,23.04
2017-05-15T04:39:19.636Z,23.09
2017-05-15T04:40:20.228Z,23.02
2017-05-15T04:41:19.693Z,23.02
2017-05-15T04:42:20.029Z,23.04
2017-05-15T04:43:20.063Z,23.07
2017-05-15T04:44:20.084Z,23.04
2017-05-15T04:45:20.060Z,23.01
2017-05-15T04:46:20.145Z,23.05
2017-05-15T04:47:20.168Z,23.04
2017-05-15T04:48:20.195Z,23.04
2017-05-15T04:49:19.903Z,23.04
2017-05-15T04:50:20.187Z,23.04
2017-05-15T04:51:20.280Z,23.05
2017-05-15T04:52:19.989Z,22.98
2017-05-15T04:53:20.354Z,23.07
2017-05-15T04:54:20.047Z,23.04
2017-05-15T04:55:20.325Z,23.07
2017-05-15T04:56:20.420Z,23.02
2017-05-15T04:57:20.133Z,23.02
2017-05-15T04:58:20.462Z,23
2017-05-15T04:59:20.182Z,23.01
2017-05-15T05:00:20.774Z,23.09
2017-05-15T05:01:20.239Z,23.07
2017-05-15T05:02:20.582Z,23.04
2017-05-15T05:03:20.606Z,23.05
2017-05-15T05:04:20.634Z,23.05
2017-05-15T05:05:20.603Z,23.09
2017-05-15T05:06:20.731Z,23.04
2017-05-15T05:07:20.088Z,23.04
2017-05-15T05:08:20.766Z,23.05
2017-05-15T05:09:20.771Z,23.04
2017-05-15T05:10:21.051Z,23.07
2017-05-15T05:11:20.829Z,23.07
2017-05-15T05:12:20.886Z,23.05
2017-05-15T05:13:20.883Z,23.05
2017-05-15T05:14:20.911Z,23.07
2017-05-15T05:15:21.227Z,23.01
2017-05-15T05:16:20.964Z,23.01
2017-05-15T05:17:20.992Z,23.01
2017-05-15T05:18:21.018Z,23.07
2017-05-15T05:19:20.746Z,23.02
2017-05-15T05:20:21.263Z,23.07
2017-05-15T05:21:21.092Z,23.01
2017-05-15T05:22:21.130Z,23.01
2017-05-15T05:23:20.845Z,22.97
2017-05-15T05:24:21.175Z,23.07
2017-05-15T05:25:21.405Z,23.05
2017-05-15T05:26:20.932Z,22.94
2017-05-15T05:27:21.264Z,22.95
2017-05-15T05:28:20.986Z,22.95
2017-05-15T05:29:20.690Z,22.95
2017-05-15T05:30:21.282Z,23.02
2017-05-15T05:31:21.375Z,22.97
2017-05-15T05:32:21.405Z,22.97
2017-05-15T05:33:21.429Z,22.97
2017-05-15T05:34:21.462Z,22.97
2017-05-15T05:35:21.418Z,22.94
2017-05-15T05:36:21.509Z,22.97
2017-05-15T05:37:21.536Z,22.82
2017-05-15T05:38:21.253Z,22.88
2017-05-15T05:39:21.282Z,22.88
2017-05-15T05:40:21.863Z,22.94
2017-05-15T05:41:21.635Z,22.94
2017-05-15T05:42:21.373Z,22.98
2017-05-15T05:43:21.386Z,22.95
2017-05-15T05:44:21.767Z,23.02
2017-05-15T05:45:21.754Z,22.98
2017-05-15T05:46:21.783Z,23.02
2017-05-15T05:47:21.811Z,23.05
2017-05-15T05:48:21.840Z,23.01
2017-05-15T05:49:21.879Z,23
2017-05-15T05:50:21.574Z,23.04
2017-05-15T05:51:21.295Z,23.04
2017-05-15T05:52:21.635Z,23.09
2017-05-15T05:53:21.976Z,23.09
2017-05-15T05:54:21.996Z,23.15
2017-05-15T05:55:22.025Z,23.04
2017-05-15T05:56:21.743Z,23.22
2017-05-15T05:57:21.779Z,23.17
2017-05-15T05:58:21.805Z,23.2
2017-05-15T05:59:22.141Z,23.17
2017-05-15T06:00:22.205Z,23.19
2017-05-15T06:01:21.887Z,23.22
2017-05-15T06:02:22.226Z,23.17
2017-05-15T06:03:22.254Z,23.15
2017-05-15T06:04:22.277Z,23.16
2017-05-15T06:05:22.302Z,23.16
2017-05-15T06:06:22.334Z,23.28
2017-05-15T06:07:22.048Z,23.16
2017-05-15T06:08:22.076Z,23.22
2017-05-15T06:09:22.426Z,23.23
2017-05-15T06:10:22.439Z,23.23
2017-05-15T06:11:22.158Z,23.22
2017-05-15T06:12:22.194Z,23.2
2017-05-15T06:13:22.524Z,23.2
2017-05-15T06:14:22.558Z,23.27
2017-05-15T06:15:22.577Z,23.25
2017-05-15T06:16:21.986Z,23.2
2017-05-15T06:17:22.324Z,23.25
2017-05-15T06:18:22.668Z,23.22
2017-05-15T06:19:22.380Z,23.23
2017-05-15T06:20:22.713Z,23.23
2017-05-15T06:21:22.434Z,23.25
2017-05-15T06:22:22.775Z,23.28
2017-05-15T06:23:22.803Z,23.23
2017-05-15T06:24:22.514Z,23.36
2017-05-15T06:25:22.850Z,23.23
2017-05-15T06:26:22.570Z,23.23
2017-05-15T06:27:22.910Z,23.25
2017-05-15T06:28:22.948Z,23.23
2017-05-15T06:29:22.653Z,23.22
2017-05-15T06:30:22.985Z,23.23
2017-05-15T06:31:22.709Z,23.38
2017-05-15T06:32:23.063Z,23.22
2017-05-15T06:33:22.759Z,23.23
2017-05-15T06:34:22.793Z,23.28
2017-05-15T06:35:23.130Z,23.28
2017-05-15T06:36:23.164Z,23.25
2017-05-15T06:37:23.202Z,23.22
2017-05-15T06:38:22.908Z,23.23
2017-05-15T06:39:23.249Z,23.25
2017-05-15T06:40:22.952Z,23.27
2017-05-15T06:41:23.297Z,23.25
2017-05-15T06:42:23.024Z,23.25
2017-05-15T06:43:23.035Z,23.25
2017-05-15T06:44:23.381Z,23.22
2017-05-15T06:45:23.404Z,23.25
2017-05-15T06:46:22.809Z,23.25
2017-05-15T06:47:23.153Z,23.27
2017-05-15T06:48:23.183Z,23.22
2017-05-15T06:49:23.204Z,23.25
2017-05-15T06:50:23.549Z,23.27
2017-05-15T06:51:23.252Z,23.27
2017-05-15T06:52:23.283Z,23.33
2017-05-15T06:53:23.626Z,23.25
2017-05-15T06:54:23.354Z,23.31
2017-05-15T06:55:23.681Z,23.31
2017-05-15T06:56:23.705Z,23.25
2017-05-15T06:57:23.738Z,23.32
2017-05-15T06:58:23.771Z,23.28
2017-05-15T06:59:23.840Z,23.39
2017-05-15T07:00:23.825Z,23.28
2017-05-15T07:01:23.535Z,23.35
2017-05-15T07:02:23.565Z,23.33
2017-05-15T07:03:23.906Z,23.38
2017-05-15T07:04:23.621Z,23.38
2017-05-15T07:05:23.959Z,23.38
2017-05-15T07:06:23.985Z,23.35
2017-05-15T07:07:24.017Z,23.38
2017-05-15T07:08:23.731Z,23.38
2017-05-15T07:09:24.073Z,23.39
2017-05-15T07:10:24.098Z,23.4
2017-05-15T07:11:24.125Z,23.4
2017-05-15T07:12:24.152Z,23.42
2017-05-15T07:13:24.184Z,23.38
2017-05-15T07:14:23.892Z,23.39
2017-05-15T07:15:23.923Z,23.47
2017-05-15T07:16:23.948Z,23.43
2017-05-15T07:17:23.981Z,23.53
2017-05-15T07:18:24.324Z,23.53
2017-05-15T07:19:24.348Z,23.46
2017-05-15T07:20:24.374Z,23.46
2017-05-15T07:21:24.409Z,23.51
2017-05-15T07:22:24.429Z,23.51
2017-05-15T07:23:24.458Z,23.53
2017-05-15T07:24:24.175Z,23.53
2017-05-15T07:25:24.516Z,23.53
2017-05-15T07:26:24.540Z,23.53
2017-05-15T07:27:24.568Z,23.53
2017-05-15T07:28:24.285Z,23.5
2017-05-15T07:29:23.998Z,23.51
2017-05-15T07:30:24.653Z,23.55
2017-05-15T07:31:24.684Z,23.57
2017-05-15T07:32:24.408Z,23.5
2017-05-15T07:33:24.421Z,23.54
2017-05-15T07:34:24.139Z,23.53
2017-05-15T07:35:24.791Z,23.54
2017-05-15T07:36:24.821Z,23.55
2017-05-15T07:37:24.845Z,23.51
2017-05-15T07:38:24.873Z,23.55
2017-05-15T07:39:24.902Z,23.54
2017-05-15T07:40:24.926Z,23.55
2017-05-15T07:41:24.951Z,23.57
2017-05-15T07:42:24.673Z,23.6
2017-05-15T07:43:24.701Z,23.6
2017-05-15T07:44:24.735Z,23.6
2017-05-15T07:45:24.750Z,23.6
2017-05-15T07:46:25.153Z,23.65
2017-05-15T07:47:25.122Z,23.68
2017-05-15T07:48:25.151Z,23.61
2017-05-15T07:49:25.181Z,23.65
2017-05-15T07:50:24.955Z,23.63
2017-05-15T07:51:25.235Z,23.58
2017-05-15T07:52:24.643Z,23.57
2017-05-15T07:53:25.294Z,23.66
2017-05-15T07:54:25.006Z,23.6
2017-05-15T07:55:25.342Z,23.55
2017-05-15T07:56:24.747Z,23.53
2017-05-15T07:57:24.775Z,23.65
2017-05-15T07:58:25.118Z,23.63
2017-05-15T07:59:25.469Z,23.61
2017-05-15T08:00:25.498Z,23.63
2017-05-15T08:01:25.515Z,23.66
2017-05-15T08:02:25.544Z,23.61
2017-05-15T08:03:25.580Z,23.75
2017-05-15T08:04:25.290Z,23.69
2017-05-15T08:05:25.618Z,23.75
2017-05-15T08:06:25.342Z,23.73
2017-05-15T08:07:25.687Z,23.69
2017-05-15T08:08:25.708Z,23.75
2017-05-15T08:09:25.426Z,23.69
2017-05-15T08:10:25.458Z,23.73
2017-05-15T08:11:25.483Z,23.75
2017-05-15T08:12:25.823Z,23.68
2017-05-15T08:13:25.852Z,23.7
2017-05-15T08:14:25.886Z,23.78
2017-05-15T08:15:25.905Z,23.75
2017-05-15T08:16:25.930Z,23.79
2017-05-15T08:17:25.650Z,23.83
2017-05-15T08:18:25.984Z,23.78
2017-05-15T08:19:26.024Z,23.79
2017-05-15T08:20:25.729Z,23.76
2017-05-15T08:21:25.758Z,23.78
2017-05-15T08:22:26.100Z,23.7
2017-05-15T08:23:26.139Z,23.75
2017-05-15T08:24:26.157Z,23.76
2017-05-15T08:25:26.185Z,23.72
2017-05-15T08:26:26.211Z,23.72
2017-05-15T08:27:26.235Z,23.78
2017-05-15T08:28:26.266Z,23.8
2017-05-15T08:29:25.984Z,23.91
2017-05-15T08:30:26.329Z,23.79
2017-05-15T08:31:26.350Z,23.76
2017-05-15T08:32:26.378Z,23.88
2017-05-15T08:33:26.406Z,23.88
2017-05-15T08:34:26.120Z,23.85
2017-05-15T08:35:26.149Z,23.87
2017-05-15T08:36:26.486Z,23.84
2017-05-15T08:37:26.518Z,23.78
2017-05-15T08:38:26.547Z,23.9
2017-05-15T08:39:26.277Z,23.84
2017-05-15T08:40:26.293Z,23.83
2017-05-15T08:41:26.570Z,23.87
2017-05-15T08:42:26.347Z,23.87
2017-05-15T08:43:26.688Z,23.94
2017-05-15T08:44:26.715Z,23.85
2017-05-15T08:45:26.744Z,23.95
2017-05-15T08:46:27.022Z,23.84
2017-05-15T08:47:26.799Z,23.95
2017-05-15T08:48:26.832Z,23.87
2017-05-15T08:49:26.855Z,23.94
2017-05-15T08:50:26.881Z,23.8
2017-05-15T08:51:26.894Z,23.88
2017-05-15T08:52:26.630Z,23.95
2017-05-15T08:53:26.343Z,23.87
2017-05-15T08:54:26.685Z,23.97
2017-05-15T08:55:26.720Z,23.91
2017-05-15T08:56:27.309Z,23.93
2017-05-15T08:57:27.074Z,23.95
2017-05-15T08:58:26.802Z,23.95
2017-05-15T08:59:26.819Z,23.97
2017-05-15T09:00:27.165Z,23.97
2017-05-15T09:01:27.073Z,23.98
2017-05-15T09:02:27.222Z,23.98
2017-05-15T09:03:27.238Z,24
2017-05-15T09:04:26.653Z,24.03
2017-05-15T09:05:26.991Z,24.02
2017-05-15T09:06:27.633Z,24.05
2017-05-15T09:07:27.045Z,24.05
2017-05-15T09:08:26.763Z,24.06
2017-05-15T09:09:27.410Z,24.06
2017-05-15T09:10:27.444Z,24.05
2017-05-15T09:11:27.672Z,24.05
2017-05-15T09:12:27.192Z,24
2017-05-15T09:13:26.909Z,24.09
2017-05-15T09:14:27.244Z,23.93
2017-05-15T09:15:27.583Z,23.94
2017-05-15T09:16:27.863Z,24.08
2017-05-15T09:17:27.641Z,24.09
2017-05-15T09:18:27.358Z,24.08
2017-05-15T09:19:27.699Z,24.06
2017-05-15T09:20:27.728Z,24.15
2017-05-15T09:21:27.645Z,24.2
2017-05-15T09:22:27.505Z,24.09
2017-05-15T09:23:27.501Z,24.09
2017-05-15T09:24:27.209Z,24.08
2017-05-15T09:25:27.866Z,24.09
2017-05-15T09:26:27.477Z,24.06
2017-05-15T09:27:27.933Z,24.06
2017-05-15T09:28:27.959Z,24.09
2017-05-15T09:29:27.990Z,24.2
2017-05-15T09:30:28.008Z,24.18
2017-05-15T09:31:28.284Z,24.12
2017-05-15T09:32:28.064Z,24.1
2017-05-15T09:33:28.094Z,24.08
2017-05-15T09:34:27.823Z,24.13
2017-05-15T09:35:27.839Z,24.18
2017-05-15T09:36:27.867Z,24.2
2017-05-15T09:37:27.889Z,24.15
2017-05-15T09:38:28.229Z,24.13
2017-05-15T09:39:28.258Z,24.18
2017-05-15T09:40:27.982Z,24.2
2017-05-15T09:41:28.007Z,24.18
2017-05-15T09:42:28.033Z,24.22
2017-05-15T09:43:28.065Z,24.22
2017-05-15T09:44:28.397Z,24.25
2017-05-15T09:45:28.424Z,24.2
2017-05-15T09:46:28.459Z,24.31
2017-05-15T09:47:28.179Z,24.27
2017-05-15T09:48:27.889Z,24.25
2017-05-15T09:49:28.238Z,24.24
2017-05-15T09:50:28.574Z,24.3
2017-05-15T09:51:28.593Z,24.28
2017-05-15T09:52:28.315Z,24.22
2017-05-15T09:53:28.652Z,24.24
2017-05-15T09:54:28.684Z,24.28
2017-05-15T09:55:28.396Z,24.28
2017-05-15T09:56:28.424Z,24.32
2017-05-15T09:57:28.455Z,24.39
2017-05-15T09:58:28.487Z,24.46
2017-05-15T09:59:28.520Z,24.32
2017-05-15T10:00:28.541Z,24.39
2017-05-15T10:01:28.561Z,24.4
2017-05-15T10:02:28.600Z,24.45
2017-05-15T10:03:28.939Z,24.35
2017-05-15T10:04:28.977Z,24.4
2017-05-15T10:05:28.682Z,24.37
2017-05-15T10:06:28.755Z,24.46
2017-05-15T10:07:28.735Z,24.42
2017-05-15T10:08:29.085Z,24.4
2017-05-15T10:09:29.116Z,24.43
2017-05-15T10:10:28.870Z,24.45
2017-05-15T10:11:29.163Z,24.42
2017-05-15T10:12:29.193Z,24.47
2017-05-15T10:13:29.225Z,24.46
2017-05-15T10:14:29.257Z,24.49
2017-05-15T10:15:29.281Z,24.43
2017-05-15T10:16:28.999Z,24.53
2017-05-15T10:17:28.915Z,24.55
2017-05-15T10:18:29.366Z,24.49
2017-05-15T10:19:29.401Z,24.46
2017-05-15T10:20:29.422Z,24.55
2017-05-15T10:21:29.137Z,24.58
2017-05-15T10:22:29.730Z,24.55
2017-05-15T10:23:29.238Z,24.55
2017-05-15T10:24:29.224Z,24.61
2017-05-15T10:25:29.253Z,24.53
2017-05-15T10:26:29.596Z,24.6
2017-05-15T10:27:29.603Z,24.55
2017-05-15T10:28:29.654Z,24.58
2017-05-15T10:29:29.368Z,24.61
2017-05-15T10:30:29.708Z,24.53
2017-05-15T10:31:29.733Z,24.57
2017-05-15T10:32:29.659Z,24.55
2017-05-15T10:33:29.794Z,24.55
2017-05-15T10:34:29.509Z,24.52
2017-05-15T10:35:29.848Z,24.47
2017-05-15T10:36:29.250Z,24.62
2017-05-15T10:37:30.102Z,24.64
2017-05-15T10:38:29.627Z,24.6
2017-05-15T10:39:29.965Z,24.62
2017-05-15T10:40:30.043Z,24.5
2017-05-15T10:41:30.012Z,24.55
2017-05-15T10:42:30.251Z,24.61
2017-05-15T10:43:29.447Z,24.62
2017-05-15T10:44:29.485Z,24.58
2017-05-15T10:45:30.138Z,24.53
2017-05-15T10:46:30.154Z,24.52
2017-05-15T10:47:30.395Z,24.49
2017-05-15T10:48:29.903Z,24.64
2017-05-15T10:49:29.936Z,24.64
2017-05-15T10:50:30.281Z,24.6
2017-05-15T10:51:30.311Z,24.64
2017-05-15T10:52:30.533Z,24.62
2017-05-15T10:53:30.054Z,24.62
2017-05-15T10:54:30.076Z,24.67
2017-05-15T10:55:30.109Z,24.71
2017-05-15T10:56:30.140Z,24.68
2017-05-15T10:57:30.370Z,24.68
2017-05-15T10:58:30.514Z,24.71
2017-05-15T10:59:30.540Z,24.68
2017-05-15T11:00:30.565Z,24.71
2017-05-15T11:01:30.283Z,24.67
2017-05-15T11:02:30.508Z,24.76
2017-05-15T11:03:30.348Z,24.64
2017-05-15T11:04:30.367Z,24.64
2017-05-15T11:05:30.704Z,24.78
2017-05-15T11:06:30.737Z,24.83
2017-05-15T11:07:30.977Z,24.73
2017-05-15T11:08:30.170Z,24.76
2017-05-15T11:09:30.512Z,24.69
2017-05-15T11:10:30.851Z,24.84
2017-05-15T11:11:30.886Z,24.76
2017-05-15T11:12:30.285Z,24.78
2017-05-15T11:13:30.934Z,24.83
2017-05-15T11:14:30.967Z,24.81
2017-05-15T11:15:30.992Z,24.81
2017-05-15T11:16:30.713Z,24.87
2017-05-15T11:17:30.741Z,24.8
2017-05-15T11:18:31.089Z,24.84
2017-05-15T11:19:30.795Z,24.85
2017-05-15T11:20:31.135Z,24.84
2017-05-15T11:21:31.169Z,24.87
2017-05-15T11:22:31.198Z,24.95
2017-05-15T11:23:31.225Z,24.81
2017-05-15T11:24:31.246Z,24.81
2017-05-15T11:25:30.971Z,24.87
2017-05-15T11:26:31.311Z,24.88
2017-05-15T11:27:31.345Z,24.9
2017-05-15T11:28:31.568Z,24.88
2017-05-15T11:29:31.398Z,24.93
2017-05-15T11:30:30.803Z,24.9
2017-05-15T11:31:31.460Z,24.98
2017-05-15T11:32:31.177Z,24.98
2017-05-15T11:33:31.713Z,25.05
2017-05-15T11:34:31.230Z,25.14
2017-05-15T11:35:31.262Z,25.17
2017-05-15T11:36:31.600Z,25.17
2017-05-15T11:37:31.320Z,25.24
2017-05-15T11:38:31.857Z,25.35
2017-05-15T11:39:31.694Z,25.57
2017-05-15T11:40:31.720Z,25.58
2017-05-15T11:41:31.757Z,25.83
2017-05-15T11:42:31.776Z,26.07
2017-05-15T11:43:32.057Z,26.07
2017-05-15T11:44:31.567Z,26.18
2017-05-15T11:45:31.555Z,26.33
2017-05-15T11:46:31.896Z,26.43
2017-05-15T11:47:31.916Z,26.69
2017-05-15T11:48:31.834Z,26.84
2017-05-15T11:49:31.988Z,26.89
2017-05-15T11:50:31.754Z,27.12
2017-05-15T11:51:32.048Z,27.28
2017-05-15T11:52:32.075Z,27.25
2017-05-15T11:53:32.248Z,27.41
2017-05-15T11:54:32.133Z,27.39
2017-05-15T11:55:32.167Z,27.49
2017-05-15T11:56:31.883Z,27.6
2017-05-15T11:57:31.920Z,27.69
2017-05-15T11:58:32.560Z,27.72
2017-05-15T11:59:31.666Z,27.84
2017-05-15T12:00:31.694Z,27.85
2017-05-15T12:01:32.359Z,27.94
2017-05-15T12:02:32.079Z,28.03
2017-05-15T12:03:32.617Z,28.18
2017-05-15T12:04:32.133Z,28.44
2017-05-15T12:05:32.477Z,28.41
2017-05-15T12:06:32.199Z,28.46
2017-05-15T12:07:32.229Z,28.61
2017-05-15T12:08:32.459Z,28.73
2017-05-15T12:09:32.289Z,28.76
2017-05-15T12:10:32.637Z,28.83
2017-05-15T12:11:32.667Z,28.98
2017-05-15T12:12:32.382Z,28.95
2017-05-15T12:13:32.987Z,28.95
2017-05-15T12:14:32.763Z,29.04
2017-05-15T12:15:32.794Z,29.15
2017-05-15T12:16:32.826Z,29.16
2017-05-15T12:17:32.855Z,29.23
2017-05-15T12:18:32.828Z,29.34
2017-05-15T12:19:32.932Z,29.39
2017-05-15T12:20:32.959Z,29.49
2017-05-15T12:21:32.982Z,29.6
2017-05-15T12:22:32.394Z,29.6
2017-05-15T12:23:33.260Z,29.71
2017-05-15T12:24:33.085Z,29.86
2017-05-15T12:25:33.113Z,29.94
2017-05-15T12:26:32.838Z,29.86
2017-05-15T12:27:33.184Z,29.87
2017-05-15T12:28:33.465Z,29.9
2017-05-15T12:29:32.932Z,29.94
2017-05-15T12:30:33.292Z,29.83
2017-05-15T12:31:33.313Z,29.86
2017-05-15T12:32:33.030Z,29.71
2017-05-15T12:33:33.262Z,29.82
2017-05-15T12:34:33.408Z,29.73
2017-05-15T12:35:33.445Z,29.73
2017-05-15T12:36:33.474Z,29.74
2017-05-15T12:37:33.198Z,29.67
2017-05-15T12:38:33.743Z,29.73
2017-05-15T12:39:33.572Z,29.63
2017-05-15T12:40:33.289Z,29.57
2017-05-15T12:41:33.330Z,29.49
2017-05-15T12:42:33.670Z,29.39
2017-05-15T12:43:33.903Z,29.39
2017-05-15T12:44:33.424Z,29.31
2017-05-15T12:45:33.769Z,29.33
2017-05-15T12:46:33.805Z,29.39
2017-05-15T12:47:33.835Z,29.36
2017-05-15T12:48:33.747Z,29.36
2017-05-15T12:49:33.900Z,29.58
2017-05-15T12:50:33.925Z,29.53
2017-05-15T12:51:33.641Z,29.61
2017-05-15T12:52:33.990Z,29.65
2017-05-15T12:53:34.274Z,29.65
2017-05-15T12:54:33.740Z,29.65
2017-05-15T12:55:34.088Z,29.45